sensor_id;sensor_type;location;lat;lon;timestamp;pressure;altitude;pressure_sealevel;temperature;humidity
4449;BME280;2237;51.870;6.160;2022-10-10T00:00:51;101395.41;;;11.83;67.20
4449;BME280;2237;51.870;6.160;2022-10-10T00:03:18;101391.97;;;11.81;67.08
4449;BME280;2237;51.870;6.160;2022-10-10T00:05:45;101392.84;;;11.80;67.21
4449;BME280;2237;51.870;6.160;2022-10-10T00:08:11;101390.25;;;11.78;67.00
4449;BME280;2237;51.870;6.160;2022-10-10T00:10:38;101388.50;;;11.80;66.96
4449;BME280;2237;51.870;6.160;2022-10-10T00:13:05;101389.41;;;11.78;67.13
4449;BME280;2237;51.870;6.160;2022-10-10T00:15:32;101383.31;;;11.77;67.08
4449;BME280;2237;51.870;6.160;2022-10-10T00:17:58;101379.97;;;11.71;67.63
4449;BME280;2237;51.870;6.160;2022-10-10T00:20:24;101383.44;;;11.68;67.74
4449;BME280;2237;51.870;6.160;2022-10-10T00:22:51;101379.16;;;11.66;68.03
4449;BME280;2237;51.870;6.160;2022-10-10T00:25:18;101381.78;;;11.64;68.40
4449;BME280;2237;51.870;6.160;2022-10-10T00:27:44;101373.94;;;11.66;68.10
4449;BME280;2237;51.870;6.160;2022-10-10T00:30:11;101374.84;;;11.63;68.15
4449;BME280;2237;51.870;6.160;2022-10-10T00:32:37;101371.38;;;11.61;68.29
4449;BME280;2237;51.870;6.160;2022-10-10T00:35:04;101376.66;;;11.58;68.49
4449;BME280;2237;51.870;6.160;2022-10-10T00:37:31;101368.81;;;11.60;68.75
4449;BME280;2237;51.870;6.160;2022-10-10T00:39:57;101366.22;;;11.58;68.66
4449;BME280;2237;51.870;6.160;2022-10-10T00:42:24;101362.75;;;11.59;68.49
4449;BME280;2237;51.870;6.160;2022-10-10T00:45:24;101364.53;;;11.57;68.64
4449;BME280;2237;51.870;6.160;2022-10-10T00:47:53;101370.66;;;11.55;68.77
4449;BME280;2237;51.870;6.160;2022-10-10T00:50:22;101365.56;;;11.47;69.37
4449;BME280;2237;51.870;6.160;2022-10-10T00:52:49;101368.16;;;11.47;69.52
4449;BME280;2237;51.870;6.160;2022-10-10T00:55:16;101362.94;;;11.47;69.26
4449;BME280;2237;51.870;6.160;2022-10-10T00:57:43;101353.44;;;11.46;69.38
4449;BME280;2237;51.870;6.160;2022-10-10T01:00:10;101364.69;;;11.48;69.28
4449;BME280;2237;51.870;6.160;2022-10-10T01:02:36;101360.50;;;11.40;69.98
4449;BME280;2237;51.870;6.160;2022-10-10T01:05:03;101363.97;;;11.40;69.88
4449;BME280;2237;51.870;6.160;2022-10-10T01:07:30;101360.50;;;11.40;69.91
4449;BME280;2237;51.870;6.160;2022-10-10T01:10:00;101352.69;;;11.38;69.99
4449;BME280;2237;51.870;6.160;2022-10-10T01:15:29;101356.19;;;11.37;70.18
4449;BME280;2237;51.870;6.160;2022-10-10T01:29:47;101350.34;;;11.21;71.40
4449;BME280;2237;51.870;6.160;2022-10-10T01:32:37;101345.25;;;11.17;71.55
4449;BME280;2237;51.870;6.160;2022-10-10T01:35:21;101340.03;;;11.15;71.98
4449;BME280;2237;51.870;6.160;2022-10-10T01:40:51;101331.50;;;11.06;72.72
4449;BME280;2237;51.870;6.160;2022-10-10T01:43:19;101339.25;;;11.09;72.55
4449;BME280;2237;51.870;6.160;2022-10-10T01:45:48;101328.78;;;11.12;72.50
4449;BME280;2237;51.870;6.160;2022-10-10T01:48:17;101333.16;;;11.11;72.66
4449;BME280;2237;51.870;6.160;2022-10-10T02:04:37;101317.63;;;11.04;73.14
4449;BME280;2237;51.870;6.160;2022-10-10T02:07:14;101311.63;;;10.99;73.55
4449;BME280;2237;51.870;6.160;2022-10-10T02:09:45;101315.06;;;11.01;73.35
4449;BME280;2237;51.870;6.160;2022-10-10T02:12:12;101297.75;;;11.00;73.12
4449;BME280;2237;51.870;6.160;2022-10-10T02:14:42;101286.47;;;10.98;73.34
4449;BME280;2237;51.870;6.160;2022-10-10T02:17:11;101292.56;;;10.97;73.82
4449;BME280;2237;51.870;6.160;2022-10-10T02:19:49;101292.59;;;10.95;73.56
4449;BME280;2237;51.870;6.160;2022-10-10T02:22:19;101285.78;;;10.88;74.14
4449;BME280;2237;51.870;6.160;2022-10-10T02:24:47;101288.38;;;10.88;74.59
4449;BME280;2237;51.870;6.160;2022-10-10T02:27:42;101282.31;;;10.86;74.72
4449;BME280;2237;51.870;6.160;2022-10-10T02:30:10;101274.53;;;10.85;75.02
4449;BME280;2237;51.870;6.160;2022-10-10T02:32:42;101285.81;;;10.84;75.34
4449;BME280;2237;51.870;6.160;2022-10-10T02:35:14;101278.03;;;10.82;75.61
4449;BME280;2237;51.870;6.160;2022-10-10T02:37:43;101278.03;;;10.82;75.30
4449;BME280;2237;51.870;6.160;2022-10-10T02:40:13;101266.75;;;10.82;75.80
4449;BME280;2237;51.870;6.160;2022-10-10T02:42:43;101265.91;;;10.81;75.62
4449;BME280;2237;51.870;6.160;2022-10-10T02:45:11;101265.84;;;10.83;75.98
4449;BME280;2237;51.870;6.160;2022-10-10T02:47:38;101263.25;;;10.83;76.13
4449;BME280;2237;51.870;6.160;2022-10-10T02:50:04;101269.38;;;10.82;75.81
4449;BME280;2237;51.870;6.160;2022-10-10T02:52:31;101266.75;;;10.82;76.30
4449;BME280;2237;51.870;6.160;2022-10-10T02:54:57;101260.72;;;10.80;76.49
4449;BME280;2237;51.870;6.160;2022-10-10T02:57:24;101261.56;;;10.80;76.34
4449;BME280;2237;51.870;6.160;2022-10-10T02:59:50;101258.16;;;10.76;76.86
4449;BME280;2237;51.870;6.160;2022-10-10T03:02:16;101259.88;;;10.77;76.74
4449;BME280;2237;51.870;6.160;2022-10-10T03:04:43;101255.56;;;10.76;76.75
4449;BME280;2237;51.870;6.160;2022-10-10T03:07:10;101254.69;;;10.76;76.98
4449;BME280;2237;51.870;6.160;2022-10-10T03:09:36;101255.56;;;10.75;77.12
4449;BME280;2237;51.870;6.160;2022-10-10T03:12:03;101251.19;;;10.77;77.14
4449;BME280;2237;51.870;6.160;2022-10-10T03:14:30;101259.97;;;10.71;77.34
4449;BME280;2237;51.870;6.160;2022-10-10T03:16:57;101249.53;;;10.73;77.31
4449;BME280;2237;51.870;6.160;2022-10-10T03:19:24;101247.84;;;10.70;77.56
4449;BME280;2237;51.870;6.160;2022-10-10T03:21:50;101249.59;;;10.68;77.46
4449;BME280;2237;51.870;6.160;2022-10-10T03:24:16;101253.09;;;10.66;77.89
4449;BME280;2237;51.870;6.160;2022-10-10T03:26:43;101244.44;;;10.65;77.85
4449;BME280;2237;51.870;6.160;2022-10-10T03:29:09;101244.44;;;10.65;77.87
4449;BME280;2237;51.870;6.160;2022-10-10T03:31:35;101255.75;;;10.64;78.06
4449;BME280;2237;51.870;6.160;2022-10-10T03:34:02;101255.75;;;10.64;77.99
4449;BME280;2237;51.870;6.160;2022-10-10T03:36:28;101252.28;;;10.62;78.14
4449;BME280;2237;51.870;6.160;2022-10-10T03:38:56;101253.19;;;10.60;79.05
4449;BME280;2237;51.870;6.160;2022-10-10T03:41:22;101242.81;;;10.58;78.75
4449;BME280;2237;51.870;6.160;2022-10-10T03:43:49;101245.44;;;10.57;79.21
4449;BME280;2237;51.870;6.160;2022-10-10T03:46:15;101242.03;;;10.53;79.65
4449;BME280;2237;51.870;6.160;2022-10-10T03:48:42;101238.63;;;10.50;80.01
4449;BME280;2237;51.870;6.160;2022-10-10T03:51:08;101239.50;;;10.50;79.88
4449;BME280;2237;51.870;6.160;2022-10-10T03:53:35;101241.22;;;10.48;80.17
4449;BME280;2237;51.870;6.160;2022-10-10T03:56:02;101239.50;;;10.50;80.27
4449;BME280;2237;51.870;6.160;2022-10-10T03:58:28;101237.84;;;10.43;81.42
4449;BME280;2237;51.870;6.160;2022-10-10T04:00:56;101245.69;;;10.40;82.09
4449;BME280;2237;51.870;6.160;2022-10-10T04:03:24;101245.69;;;10.42;81.80
4449;BME280;2237;51.870;6.160;2022-10-10T04:05:51;101244.78;;;10.44;81.52
4449;BME280;2237;51.870;6.160;2022-10-10T04:08:18;101246.47;;;10.45;81.74
4449;BME280;2237;51.870;6.160;2022-10-10T04:10:48;101248.19;;;10.48;81.13
4449;BME280;2237;51.870;6.160;2022-10-10T04:13:16;101242.97;;;10.49;81.34
4449;BME280;2237;51.870;6.160;2022-10-10T04:15:42;101240.44;;;10.45;81.63
4449;BME280;2237;51.870;6.160;2022-10-10T04:18:09;101231.00;;;10.38;81.76
4449;BME280;2237;51.870;6.160;2022-10-10T04:20:35;101226.66;;;10.38;81.67
4449;BME280;2237;51.870;6.160;2022-10-10T04:23:02;101234.50;;;10.35;82.07
4449;BME280;2237;51.870;6.160;2022-10-10T04:25:28;101236.31;;;10.30;82.60
4449;BME280;2237;51.870;6.160;2022-10-10T04:27:55;101219.88;;;10.27;83.21
4449;BME280;2237;51.870;6.160;2022-10-10T04:30:26;101233.84;;;10.19;84.07
4449;BME280;2237;51.870;6.160;2022-10-10T04:32:53;101235.63;;;10.17;83.58
4449;BME280;2237;51.870;6.160;2022-10-10T04:35:20;101239.09;;;10.16;84.02
4449;BME280;2237;51.870;6.160;2022-10-10T04:37:46;101239.06;;;10.21;83.95
4449;BME280;2237;51.870;6.160;2022-10-10T04:40:12;101233.03;;;10.16;84.11
4449;BME280;2237;51.870;6.160;2022-10-10T04:42:39;101228.72;;;10.15;84.30
4449;BME280;2237;51.870;6.160;2022-10-10T04:45:06;101237.41;;;10.12;84.95
4449;BME280;2237;51.870;6.160;2022-10-10T04:47:32;101248.69;;;10.10;85.32
4449;BME280;2237;51.870;6.160;2022-10-10T04:49:58;101230.56;;;10.05;85.74
4449;BME280;2237;51.870;6.160;2022-10-10T04:52:25;101238.41;;;10.04;85.61
4449;BME280;2237;51.870;6.160;2022-10-10T04:54:51;101236.59;;;10.07;85.77
4449;BME280;2237;51.870;6.160;2022-10-10T04:57:18;101233.16;;;10.07;85.83
4449;BME280;2237;51.870;6.160;2022-10-10T04:59:44;101236.59;;;10.07;85.81
4449;BME280;2237;51.870;6.160;2022-10-10T05:02:10;101227.09;;;10.06;85.83
4449;BME280;2237;51.870;6.160;2022-10-10T05:04:37;101240.97;;;10.05;86.23
4449;BME280;2237;51.870;6.160;2022-10-10T05:07:03;101238.41;;;10.04;86.54
4449;BME280;2237;51.870;6.160;2022-10-10T05:09:29;101241.00;;;10.04;86.74
4449;BME280;2237;51.870;6.160;2022-10-10T05:11:59;101233.19;;;10.04;86.61
4449;BME280;2237;51.870;6.160;2022-10-10T05:14:25;101228.88;;;10.01;87.02
4449;BME280;2237;51.870;6.160;2022-10-10T05:16:52;101232.38;;;9.99;87.21
4449;BME280;2237;51.870;6.160;2022-10-10T05:19:18;101237.56;;;10.00;87.42
4449;BME280;2237;51.870;6.160;2022-10-10T05:21:45;101228.91;;;10.00;87.37
4449;BME280;2237;51.870;6.160;2022-10-10T05:24:11;101221.06;;;10.03;87.46
4449;BME280;2237;51.870;6.160;2022-10-10T05:26:37;101223.66;;;10.03;87.30
4449;BME280;2237;51.870;6.160;2022-10-10T05:29:08;101226.28;;;10.00;87.77
4449;BME280;2237;51.870;6.160;2022-10-10T05:31:35;101228.91;;;9.98;87.77
4449;BME280;2237;51.870;6.160;2022-10-10T05:34:01;101221.97;;;9.99;88.01
4449;BME280;2237;51.870;6.160;2022-10-10T05:36:28;101234.97;;;9.99;88.31
4449;BME280;2237;51.870;6.160;2022-10-10T05:38:54;101233.25;;;9.99;88.43
4449;BME280;2237;51.870;6.160;2022-10-10T05:41:21;101228.94;;;9.97;88.62
4449;BME280;2237;51.870;6.160;2022-10-10T05:43:47;101241.06;;;9.98;88.57
4449;BME280;2237;51.870;6.160;2022-10-10T05:46:14;101236.78;;;9.95;88.57
4449;BME280;2237;51.870;6.160;2022-10-10T05:48:40;101235.88;;;9.96;89.04
4449;BME280;2237;51.870;6.160;2022-10-10T05:51:06;101239.31;;;9.98;89.26
4449;BME280;2237;51.870;6.160;2022-10-10T05:53:33;101240.19;;;9.99;89.26
4449;BME280;2237;51.870;6.160;2022-10-10T05:56:00;101244.50;;;10.00;89.40
4449;BME280;2237;51.870;6.160;2022-10-10T05:58:27;101240.13;;;10.02;89.44
4449;BME280;2237;51.870;6.160;2022-10-10T06:00:53;101242.75;;;10.02;89.92
4449;BME280;2237;51.870;6.160;2022-10-10T06:03:19;101236.69;;;10.00;89.84
4449;BME280;2237;51.870;6.160;2022-10-10T06:05:49;101237.53;;;10.03;89.83
4449;BME280;2237;51.870;6.160;2022-10-10T06:08:16;101238.44;;;10.01;90.50
4449;BME280;2237;51.870;6.160;2022-10-10T06:10:44;101237.53;;;10.02;90.75
4449;BME280;2237;51.870;6.160;2022-10-10T06:13:12;101239.25;;;10.03;91.11
4449;BME280;2237;51.870;6.160;2022-10-10T06:15:39;101236.66;;;10.01;91.65
4449;BME280;2237;51.870;6.160;2022-10-10T06:18:06;101240.09;;;10.05;91.85
4449;BME280;2237;51.870;6.160;2022-10-10T06:20:34;101228.00;;;10.04;91.80
4449;BME280;2237;51.870;6.160;2022-10-10T06:23:02;101227.09;;;10.05;91.87
4449;BME280;2237;51.870;6.160;2022-10-10T06:25:29;101237.41;;;10.12;91.63
4449;BME280;2237;51.870;6.160;2022-10-10T06:28:06;101234.81;;;10.11;92.05
4449;BME280;2237;51.870;6.160;2022-10-10T06:30:33;101239.09;;;10.18;91.78
4449;BME280;2237;51.870;6.160;2022-10-10T06:33:02;101237.34;;;10.18;92.03
4449;BME280;2237;51.870;6.160;2022-10-10T06:35:28;101244.22;;;10.24;92.00
4449;BME280;2237;51.870;6.160;2022-10-10T06:37:55;101242.41;;;10.28;91.53
4449;BME280;2237;51.870;6.160;2022-10-10T06:40:21;101250.16;;;10.32;91.59
4449;BME280;2237;51.870;6.160;2022-10-10T06:42:47;101240.63;;;10.33;91.73
4449;BME280;2237;51.870;6.160;2022-10-10T06:45:14;101246.59;;;10.38;91.67
4449;BME280;2237;51.870;6.160;2022-10-10T06:47:40;101251.72;;;10.44;91.70
4449;BME280;2237;51.870;6.160;2022-10-10T06:50:07;101260.38;;;10.47;91.70
4449;BME280;2237;51.870;6.160;2022-10-10T06:52:34;101257.69;;;10.52;91.51
4449;BME280;2237;51.870;6.160;2022-10-10T06:55:00;101257.63;;;10.55;91.21
4449;BME280;2237;51.870;6.160;2022-10-10T06:57:27;101261.09;;;10.55;91.45
4449;BME280;2237;51.870;6.160;2022-10-10T06:59:54;101256.72;;;10.59;91.65
4449;BME280;2237;51.870;6.160;2022-10-10T07:02:20;101250.56;;;10.63;91.39
4449;BME280;2237;51.870;6.160;2022-10-10T07:04:48;101254.75;;;10.73;90.85
4449;BME280;2237;51.870;6.160;2022-10-10T07:07:14;101253.78;;;10.77;90.86
4449;BME280;2237;51.870;6.160;2022-10-10T07:09:40;101262.44;;;10.81;90.85
4449;BME280;2237;51.870;6.160;2022-10-10T07:12:07;101265.03;;;10.81;91.21
4449;BME280;2237;51.870;6.160;2022-10-10T07:14:34;101257.13;;;10.87;91.08
4449;BME280;2237;51.870;6.160;2022-10-10T07:17:00;101253.53;;;10.92;90.95
4449;BME280;2237;51.870;6.160;2022-10-10T07:19:26;101255.13;;;11.01;90.53
4449;BME280;2237;51.870;6.160;2022-10-10T07:21:53;101258.50;;;11.06;90.46
4449;BME280;2237;51.870;6.160;2022-10-10T07:24:19;101268.84;;;11.12;90.51
4449;BME280;2237;51.870;6.160;2022-10-10T07:26:46;101265.25;;;11.17;90.12
4449;BME280;2237;51.870;6.160;2022-10-10T07:29:12;101263.47;;;11.21;90.29
4449;BME280;2237;51.870;6.160;2022-10-10T07:31:39;101261.59;;;11.27;89.99
4449;BME280;2237;51.870;6.160;2022-10-10T07:34:05;101268.56;;;11.28;89.76
4449;BME280;2237;51.870;6.160;2022-10-10T07:36:31;101273.72;;;11.30;89.72
4449;BME280;2237;51.870;6.160;2022-10-10T07:38:58;101274.59;;;11.29;90.03
4449;BME280;2237;51.870;6.160;2022-10-10T07:41:24;101268.63;;;11.25;90.10
4449;BME280;2237;51.870;6.160;2022-10-10T07:43:54;101271.13;;;11.31;90.51
4449;BME280;2237;51.870;6.160;2022-10-10T07:46:21;101273.59;;;11.38;90.51
4449;BME280;2237;51.870;6.160;2022-10-10T07:48:47;101273.50;;;11.42;90.48
4449;BME280;2237;51.870;6.160;2022-10-10T07:51:14;101275.19;;;11.46;90.66
4449;BME280;2237;51.870;6.160;2022-10-10T07:53:41;101282.81;;;11.55;90.50
4449;BME280;2237;51.870;6.160;2022-10-10T07:56:09;101281.00;;;11.60;90.44
4449;BME280;2237;51.870;6.160;2022-10-10T07:58:36;101282.75;;;11.58;91.34
4449;BME280;2237;51.870;6.160;2022-10-10T08:01:04;101288.69;;;11.69;90.81
4449;BME280;2237;51.870;6.160;2022-10-10T08:03:31;101292.75;;;11.84;90.72
4449;BME280;2237;51.870;6.160;2022-10-10T08:05:58;101301.09;;;12.00;90.04
4449;BME280;2237;51.870;6.160;2022-10-10T08:08:27;101304.22;;;12.17;90.14
4449;BME280;2237;51.870;6.160;2022-10-10T08:10:53;101298.84;;;12.24;90.14
4449;BME280;2237;51.870;6.160;2022-10-10T08:13:20;101300.03;;;12.48;89.41
4449;BME280;2237;51.870;6.160;2022-10-10T08:15:49;101297.00;;;12.66;88.80
4449;BME280;2237;51.870;6.160;2022-10-10T08:18:16;101301.63;;;12.92;88.17
4449;BME280;2237;51.870;6.160;2022-10-10T08:20:43;101291.81;;;13.01;87.75
4449;BME280;2237;51.870;6.160;2022-10-10T08:23:09;101294.16;;;13.12;88.08
4449;BME280;2237;51.870;6.160;2022-10-10T08:25:36;101298.50;;;13.15;89.39
4449;BME280;2237;51.870;6.160;2022-10-10T08:28:03;101300.34;;;13.10;91.29
4449;BME280;2237;51.870;6.160;2022-10-10T08:30:32;101304.44;;;13.20;91.38
4449;BME280;2237;51.870;6.160;2022-10-10T08:33:00;101303.88;;;13.41;90.67
4449;BME280;2237;51.870;6.160;2022-10-10T08:35:29;101297.50;;;13.51;90.06
4449;BME280;2237;51.870;6.160;2022-10-10T08:37:56;101304.25;;;13.59;89.21
4449;BME280;2237;51.870;6.160;2022-10-10T08:40:22;101299.16;;;13.55;88.95
4449;BME280;2237;51.870;6.160;2022-10-10T08:42:51;101313.69;;;13.67;88.60
4449;BME280;2237;51.870;6.160;2022-10-10T08:45:22;101310.28;;;13.63;88.21
4449;BME280;2237;51.870;6.160;2022-10-10T08:47:51;101319.41;;;13.79;87.61
4449;BME280;2237;51.870;6.160;2022-10-10T08:50:24;101311.69;;;13.75;88.75
4449;BME280;2237;51.870;6.160;2022-10-10T08:53:42;101306.38;;;13.78;88.70
4449;BME280;2237;51.870;6.160;2022-10-10T08:55:43;101312.03;;;13.93;88.74
4449;BME280;2237;51.870;6.160;2022-10-10T09:00:45;101297.91;;;13.99;86.89
4449;BME280;2237;51.870;6.160;2022-10-10T09:03:20;101299.22;;;14.13;86.74
4449;BME280;2237;51.870;6.160;2022-10-10T09:17:03;101300.41;;;14.62;84.68
4449;BME280;2237;51.870;6.160;2022-10-10T09:22:24;101310.34;;;14.79;83.91
4449;BME280;2237;51.870;6.160;2022-10-10T09:24:57;101312.91;;;14.80;83.70
4449;BME280;2237;51.870;6.160;2022-10-10T09:27:32;101326.38;;;14.97;83.63
4449;BME280;2237;51.870;6.160;2022-10-10T09:30:19;101317.94;;;15.14;83.40
4449;BME280;2237;51.870;6.160;2022-10-10T09:33:16;101317.47;;;15.27;82.64
4449;BME280;2237;51.870;6.160;2022-10-10T09:35:45;101311.97;;;15.35;81.31
4449;BME280;2237;51.870;6.160;2022-10-10T09:38:33;101304.34;;;15.54;80.40
4449;BME280;2237;51.870;6.160;2022-10-10T09:43:33;101309.84;;;15.96;77.23
4449;BME280;2237;51.870;6.160;2022-10-10T09:46:02;101313.03;;;16.04;76.37
4449;BME280;2237;51.870;6.160;2022-10-10T09:48:35;101322.03;;;16.20;75.74
4449;BME280;2237;51.870;6.160;2022-10-10T09:51:05;101321.41;;;16.36;74.24
4449;BME280;2237;51.870;6.160;2022-10-10T09:53:32;101324.88;;;16.37;72.52
4449;BME280;2237;51.870;6.160;2022-10-10T09:55:59;101317.28;;;16.53;72.39
4449;BME280;2237;51.870;6.160;2022-10-10T09:58:39;101321.97;;;16.68;72.07
4449;BME280;2237;51.870;6.160;2022-10-10T10:04:18;101329.19;;;16.84;71.09
4449;BME280;2237;51.870;6.160;2022-10-10T10:07:18;101324.22;;;16.99;70.60
4449;BME280;2237;51.870;6.160;2022-10-10T10:10:02;101326.97;;;17.17;69.80
4449;BME280;2237;51.870;6.160;2022-10-10T10:12:40;101331.47;;;17.35;68.64
4449;BME280;2237;51.870;6.160;2022-10-10T10:15:17;101330.56;;;17.57;67.49
4449;BME280;2237;51.870;6.160;2022-10-10T10:17:44;101327.38;;;17.48;67.81
4449;BME280;2237;51.870;6.160;2022-10-10T10:22:55;101326.88;;;17.61;67.63
4449;BME280;2237;51.870;6.160;2022-10-10T10:30:37;101326.97;;;17.98;66.00
4449;BME280;2237;51.870;6.160;2022-10-10T10:33:19;101329.56;;;18.18;65.24
4449;BME280;2237;51.870;6.160;2022-10-10T10:49:21;101333.19;;;18.54;62.29
4449;BME280;2237;51.870;6.160;2022-10-10T10:55:11;101337.38;;;18.58;61.62
4449;BME280;2237;51.870;6.160;2022-10-10T11:01:13;101339.28;;;18.74;61.20
4449;BME280;2237;51.870;6.160;2022-10-10T11:07:10;101339.19;;;18.75;61.52
4449;BME280;2237;51.870;6.160;2022-10-10T11:10:20;101345.56;;;18.71;61.02
4449;BME280;2237;51.870;6.160;2022-10-10T11:13:19;101353.00;;;18.63;61.63
4449;BME280;2237;51.870;6.160;2022-10-10T11:15:54;101354.28;;;18.54;61.92
4449;BME280;2237;51.870;6.160;2022-10-10T11:18:42;101366.22;;;18.43;63.02
4449;BME280;2237;51.870;6.160;2022-10-10T11:21:16;101368.53;;;18.50;62.82
4449;BME280;2237;51.870;6.160;2022-10-10T11:26:45;101381.06;;;18.45;61.50
4449;BME280;2237;51.870;6.160;2022-10-10T11:29:27;101375.59;;;18.69;60.91
4449;BME280;2237;51.870;6.160;2022-10-10T11:32:06;101374.59;;;19.07;59.57
4449;BME280;2237;51.870;6.160;2022-10-10T11:35:01;101367.94;;;19.53;58.48
4449;BME280;2237;51.870;6.160;2022-10-10T11:37:30;101378.88;;;19.62;56.52
4449;BME280;2237;51.870;6.160;2022-10-10T11:40:03;101368.16;;;19.48;57.05
4449;BME280;2237;51.870;6.160;2022-10-10T11:42:45;101368.78;;;19.53;57.51
4449;BME280;2237;51.870;6.160;2022-10-10T11:45:20;101377.09;;;19.46;56.57
4449;BME280;2237;51.870;6.160;2022-10-10T11:48:00;101375.31;;;19.10;56.98
4449;BME280;2237;51.870;6.160;2022-10-10T11:50:39;101375.28;;;19.29;57.70
4449;BME280;2237;51.870;6.160;2022-10-10T11:53:16;101366.84;;;19.40;58.08
4449;BME280;2237;51.870;6.160;2022-10-10T11:58:43;101379.19;;;19.39;58.12
4449;BME280;2237;51.870;6.160;2022-10-10T12:01:29;101380.13;;;19.55;58.23
4449;BME280;2237;51.870;6.160;2022-10-10T12:03:59;101385.13;;;19.44;58.09
4449;BME280;2237;51.870;6.160;2022-10-10T12:06:42;101371.47;;;19.35;58.09
4449;BME280;2237;51.870;6.160;2022-10-10T12:11:52;101386.00;;;19.95;55.84
4449;BME280;2237;51.870;6.160;2022-10-10T12:14:21;101369.28;;;19.94;55.95
4449;BME280;2237;51.870;6.160;2022-10-10T12:16:50;101362.66;;;20.03;56.09
4449;BME280;2237;51.870;6.160;2022-10-10T12:19:19;101370.44;;;20.39;55.36
4449;BME280;2237;51.870;6.160;2022-10-10T12:22:00;101370.97;;;20.61;53.83
4449;BME280;2237;51.870;6.160;2022-10-10T12:24:30;101363.53;;;20.99;53.51
4449;BME280;2237;51.870;6.160;2022-10-10T12:29:44;101369.81;;;20.66;52.92
4449;BME280;2237;51.870;6.160;2022-10-10T12:40:16;101383.06;;;21.43;52.26
4449;BME280;2237;51.870;6.160;2022-10-10T12:47:56;101367.22;;;22.01;50.22
4449;BME280;2237;51.870;6.160;2022-10-10T12:50:37;101384.53;;;22.35;49.71
4449;BME280;2237;51.870;6.160;2022-10-10T12:53:15;101391.09;;;21.71;50.84
4449;BME280;2237;51.870;6.160;2022-10-10T12:55:47;101400.53;;;21.00;53.01
4449;BME280;2237;51.870;6.160;2022-10-10T12:58:20;101408.03;;;20.61;54.97
4449;BME280;2237;51.870;6.160;2022-10-10T13:00:56;101401.13;;;20.58;57.04
4449;BME280;2237;51.870;6.160;2022-10-10T13:05:58;101398.81;;;20.19;58.80
4449;BME280;2237;51.870;6.160;2022-10-10T13:08:27;101402.81;;;19.77;60.47
4449;BME280;2237;51.870;6.160;2022-10-10T13:13:31;101422.50;;;19.35;64.04
4449;BME280;2237;51.870;6.160;2022-10-10T13:15:58;101427.75;;;19.18;65.09
4449;BME280;2237;51.870;6.160;2022-10-10T13:18:39;101434.97;;;18.96;66.34
4449;BME280;2237;51.870;6.160;2022-10-10T13:21:08;101431.91;;;18.68;66.98
4449;BME280;2237;51.870;6.160;2022-10-10T13:23:40;101415.78;;;18.55;68.54
4449;BME280;2237;51.870;6.160;2022-10-10T13:26:20;101424.41;;;18.58;69.09
4449;BME280;2237;51.870;6.160;2022-10-10T13:28:48;101429.13;;;18.52;69.89
4449;BME280;2237;51.870;6.160;2022-10-10T13:31:15;101423.53;;;18.39;71.25
4449;BME280;2237;51.870;6.160;2022-10-10T13:33:42;101424.31;;;18.41;72.38
4449;BME280;2237;51.870;6.160;2022-10-10T13:36:18;101436.34;;;18.47;73.06
4449;BME280;2237;51.870;6.160;2022-10-10T13:38:47;101437.56;;;18.40;73.55
4449;BME280;2237;51.870;6.160;2022-10-10T13:41:16;101444.13;;;18.31;74.87
4449;BME280;2237;51.870;6.160;2022-10-10T13:43:43;101453.00;;;18.49;74.75
4449;BME280;2237;51.870;6.160;2022-10-10T13:46:30;101458.31;;;18.47;75.00
4449;BME280;2237;51.870;6.160;2022-10-10T13:48:58;101464.78;;;18.40;76.34
4449;BME280;2237;51.870;6.160;2022-10-10T13:51:45;101467.00;;;18.31;78.05
4449;BME280;2237;51.870;6.160;2022-10-10T13:57:01;101480.69;;;17.98;81.42
4449;BME280;2237;51.870;6.160;2022-10-10T13:59:29;101493.91;;;17.77;83.29
4449;BME280;2237;51.870;6.160;2022-10-10T14:02:00;101498.63;;;17.69;84.39
4449;BME280;2237;51.870;6.160;2022-10-10T14:04:34;101503.97;;;17.67;85.39
4449;BME280;2237;51.870;6.160;2022-10-10T14:07:10;101512.38;;;17.55;85.36
4449;BME280;2237;51.870;6.160;2022-10-10T14:09:51;101506.66;;;17.44;86.17
4449;BME280;2237;51.870;6.160;2022-10-10T14:12:31;101515.19;;;17.27;87.68
4449;BME280;2237;51.870;6.160;2022-10-10T14:15:00;101518.16;;;17.18;88.79
4449;BME280;2237;51.870;6.160;2022-10-10T14:17:27;101527.06;;;17.16;89.69
4449;BME280;2237;51.870;6.160;2022-10-10T14:19:56;101527.75;;;17.21;89.45
4449;BME280;2237;51.870;6.160;2022-10-10T14:22:22;101529.84;;;17.34;88.82
4449;BME280;2237;51.870;6.160;2022-10-10T14:24:49;101529.59;;;17.40;88.47
4449;BME280;2237;51.870;6.160;2022-10-10T14:27:23;101535.00;;;17.37;89.79
4449;BME280;2237;51.870;6.160;2022-10-10T14:29:52;101544.66;;;17.37;90.89
4449;BME280;2237;51.870;6.160;2022-10-10T14:32:19;101544.47;;;17.41;91.48
4449;BME280;2237;51.870;6.160;2022-10-10T14:34:46;101542.56;;;17.45;91.49
4449;BME280;2237;51.870;6.160;2022-10-10T14:37:22;101546.28;;;17.41;91.78
4449;BME280;2237;51.870;6.160;2022-10-10T14:39:49;101539.81;;;17.26;91.87
4449;BME280;2237;51.870;6.160;2022-10-10T14:42:19;101542.44;;;17.26;92.87
4449;BME280;2237;51.870;6.160;2022-10-10T14:44:48;101549.50;;;17.26;93.40
4449;BME280;2237;51.870;6.160;2022-10-10T14:47:23;101548.00;;;17.19;94.10
4449;BME280;2237;51.870;6.160;2022-10-10T14:49:49;101560.59;;;17.11;95.47
4449;BME280;2237;51.870;6.160;2022-10-10T14:52:18;101566.97;;;17.04;96.56
4449;BME280;2237;51.870;6.160;2022-10-10T14:54:44;101569.47;;;17.08;97.58
4449;BME280;2237;51.870;6.160;2022-10-10T14:57:12;101576.69;;;17.03;98.03
4449;BME280;2237;51.870;6.160;2022-10-10T14:59:38;101573.44;;;16.95;98.68
4449;BME280;2237;51.870;6.160;2022-10-10T15:02:16;101575.41;;;16.90;99.89
4449;BME280;2237;51.870;6.160;2022-10-10T15:04:42;101583.47;;;16.85;100.00
4449;BME280;2237;51.870;6.160;2022-10-10T15:07:10;101595.06;;;16.80;100.00
4449;BME280;2237;51.870;6.160;2022-10-10T15:09:40;101592.59;;;16.75;100.00
4449;BME280;2237;51.870;6.160;2022-10-10T15:12:17;101598.50;;;16.57;100.00
4449;BME280;2237;51.870;6.160;2022-10-10T15:14:43;101614.88;;;16.39;100.00
4449;BME280;2237;51.870;6.160;2022-10-10T15:17:09;101618.91;;;16.23;100.00
4449;BME280;2237;51.870;6.160;2022-10-10T15:19:36;101625.22;;;16.17;100.00
4449;BME280;2237;51.870;6.160;2022-10-10T15:22:02;101652.25;;;15.95;100.00